Time;durP1;ratioP1;P1;durP2;ratioP2;P2;SDS_P1;SDS_P2;PMS_P1;PMS_P2;Temp;Humidity;BMP_temperature;BMP_pressure;BME280_temperature;BME280_humidity;BME280_pressure;Samples;Min_cycle;Max_cycle;Signal;HPM_P1;HPM_P2
2021/03/19 00:01:53;0.00;0.00;0.62;0.00;0.00;0.62;2.17;1.50;;;21.90;24.20;;;;;;2241445;61;20773;-61
2021/03/19 00:04:38;0.00;0.00;0.62;0.00;0.00;0.62;1.53;1.27;;;21.80;24.20;;;;;;2241769;62;20421;-63
2021/03/19 00:07:24;0.00;0.00;0.62;0.00;0.00;0.62;2.07;1.50;;;21.90;24.20;;;;;;2243801;61;20386;-66
2021/03/19 00:10:12;0.00;0.00;0.62;0.00;0.00;0.62;1.67;1.17;;;21.80;24.20;;;;;;2241436;62;20392;-65
2021/03/19 00:12:59;0.00;0.00;0.62;0.00;0.00;0.62;2.20;1.60;;;21.80;24.20;;;;;;2241560;61;20737;-62
2021/03/19 00:15:44;0.00;0.00;0.62;0.00;0.00;0.62;1.83;1.17;;;21.90;24.30;;;;;;2241762;62;20375;-60
2021/03/19 00:18:29;0.00;0.00;0.62;0.00;0.00;0.62;1.80;1.50;;;21.80;24.20;;;;;;2241402;62;20581;-60
2021/03/19 00:21:14;0.00;0.00;0.62;0.00;0.00;0.62;3.20;2.87;;;21.80;24.20;;;;;;2241280;62;20535;-61
2021/03/19 00:23:59;0.00;0.00;0.62;0.00;0.00;0.62;3.30;2.77;;;21.80;24.10;;;;;;2241561;62;20410;-64
2021/03/19 00:26:44;0.00;0.00;0.62;0.00;0.00;0.62;3.10;2.70;;;21.90;24.20;;;;;;2241682;62;20446;-62
2021/03/19 00:29:29;0.00;0.00;0.62;0.00;0.00;0.62;4.30;3.30;;;21.90;24.10;;;;;;2241460;62;20730;-63
2021/03/19 00:32:13;0.00;0.00;0.62;0.00;0.00;0.62;3.20;2.80;;;21.80;24.10;;;;;;2241196;61;20480;-61
2021/03/19 00:34:58;0.00;0.00;0.62;0.00;0.00;0.62;4.60;2.23;;;21.80;24.10;;;;;;2241514;62;20378;-63
2021/03/19 00:37:43;0.00;0.00;0.62;0.00;0.00;0.62;2.70;2.20;;;21.80;24.00;;;;;;2241611;62;20398;-66
2021/03/19 00:40:28;0.00;0.00;0.62;0.00;0.00;0.62;3.03;2.50;;;21.80;24.00;;;;;;2241170;62;20588;-66
2021/03/19 00:43:15;0.00;0.00;0.62;0.00;0.00;0.62;2.77;2.40;;;21.80;24.00;;;;;;2241149;62;20488;-62
2021/03/19 00:46:00;0.00;0.00;0.62;0.00;0.00;0.62;3.13;2.80;;;21.80;24.10;;;;;;2240872;62;20370;-62
2021/03/19 00:48:45;0.00;0.00;0.62;0.00;0.00;0.62;3.87;3.13;;;21.80;24.00;;;;;;2241517;62;20376;-60
2021/03/19 00:51:30;0.00;0.00;0.62;0.00;0.00;0.62;3.70;3.30;;;21.80;24.00;;;;;;2241147;61;20395;-61
2021/03/19 00:54:14;0.00;0.00;0.62;0.00;0.00;0.62;4.00;3.27;;;21.80;24.00;;;;;;2242046;62;20388;-61
2021/03/19 00:56:59;0.00;0.00;0.62;0.00;0.00;0.62;7.40;4.20;;;21.70;23.90;;;;;;2242042;62;20398;-62
2021/03/19 00:59:43;0.00;0.00;0.62;0.00;0.00;0.62;5.33;4.53;;;21.70;23.80;;;;;;2242180;62;20436;-61
2021/03/19 01:02:29;0.00;0.00;0.62;0.00;0.00;0.62;4.90;4.40;;;21.70;23.80;;;;;;2242001;61;20402;-62
2021/03/19 01:05:18;0.00;0.00;0.62;0.00;0.00;0.62;5.20;4.00;;;21.70;23.70;;;;;;2242176;62;20372;-62
2021/03/19 01:08:05;0.00;0.00;0.62;0.00;0.00;0.62;5.47;4.60;;;21.70;23.70;;;;;;2242341;62;20369;-61
2021/03/19 01:10:52;0.00;0.00;0.62;0.00;0.00;0.62;6.00;3.73;;;21.70;23.70;;;;;;2242296;62;20449;-62
2021/03/19 01:13:37;0.00;0.00;0.62;0.00;0.00;0.62;5.53;4.13;;;21.60;23.50;;;;;;2241787;62;20385;-60
2021/03/19 01:16:22;0.00;0.00;0.62;0.00;0.00;0.62;5.10;4.40;;;21.60;23.50;;;;;;2242065;62;20374;-63
2021/03/19 01:19:08;0.00;0.00;0.62;0.00;0.00;0.62;4.67;4.17;;;21.60;23.50;;;;;;2242069;62;20830;-63
2021/03/19 01:21:53;0.00;0.00;0.62;0.00;0.00;0.62;4.83;3.57;;;21.60;23.40;;;;;;2241988;61;20507;-61
2021/03/19 01:24:37;0.00;0.00;0.62;0.00;0.00;0.62;5.60;4.13;;;21.60;23.40;;;;;;2242013;62;20370;-62
2021/03/19 01:27:22;0.00;0.00;0.62;0.00;0.00;0.62;4.50;3.90;;;21.50;23.30;;;;;;2241908;62;20398;-61
2021/03/19 01:30:11;0.00;0.00;0.62;0.00;0.00;0.62;5.33;4.17;;;21.50;23.30;;;;;;2242397;62;20592;-60
2021/03/19 01:32:56;0.00;0.00;0.62;0.00;0.00;0.62;4.77;4.27;;;21.50;23.30;;;;;;2242262;61;20391;-64
2021/03/19 01:35:43;0.00;0.00;0.62;0.00;0.00;0.62;4.97;4.40;;;21.50;23.30;;;;;;2241841;62;20402;-63
2021/03/19 01:38:27;0.00;0.00;0.62;0.00;0.00;0.62;4.67;4.03;;;21.40;23.20;;;;;;2241885;62;20401;-61
2021/03/19 01:41:12;0.00;0.00;0.62;0.00;0.00;0.62;5.97;4.00;;;21.40;23.20;;;;;;2241640;62;20413;-62
2021/03/19 01:43:58;0.00;0.00;0.62;0.00;0.00;0.62;6.10;4.17;;;21.40;23.20;;;;;;2242136;62;20364;-63
2021/03/19 01:47:39;0.00;0.00;0.62;0.00;0.00;0.62;4.90;4.00;;;21.40;23.20;;;;;;2241717;62;20365;-63
2021/03/19 01:51:20;0.00;0.00;0.62;0.00;0.00;0.62;3.80;3.40;;;21.40;23.20;;;;;;2241685;62;20355;-62
2021/03/19 01:55:01;0.00;0.00;0.62;0.00;0.00;0.62;5.17;3.77;;;21.30;23.10;;;;;;2241874;62;20403;-62
2021/03/19 01:58:42;0.00;0.00;0.62;0.00;0.00;0.62;4.20;3.60;;;21.30;23.10;;;;;;2244097;61;20373;-63
2021/03/19 02:02:23;0.00;0.00;0.62;0.00;0.00;0.62;4.30;3.80;;;21.30;23.10;;;;;;2241660;61;20612;-61
2021/03/19 02:06:04;0.00;0.00;0.62;0.00;0.00;0.62;4.73;4.07;;;21.20;23.00;;;;;;2241864;62;20350;-60
2021/03/19 02:09:45;0.00;0.00;0.62;0.00;0.00;0.62;4.83;4.00;;;21.20;23.00;;;;;;2244129;61;20650;-61
2021/03/19 02:13:26;0.00;0.00;0.62;0.00;0.00;0.62;4.20;3.80;;;21.10;23.00;;;;;;2241509;61;20591;-62
2021/03/19 02:17:07;0.00;0.00;0.62;0.00;0.00;0.62;5.00;3.70;;;21.10;22.90;;;;;;2241836;62;20776;-62
2021/03/19 02:20:47;0.00;0.00;0.62;0.00;0.00;0.62;4.37;3.33;;;21.10;22.90;;;;;;2241601;62;20400;-62
2021/03/19 02:24:29;0.00;0.00;0.62;0.00;0.00;0.62;3.43;3.07;;;21.00;22.80;;;;;;2241720;62;20391;-62
2021/03/19 02:28:09;0.00;0.00;0.62;0.00;0.00;0.62;3.90;3.30;;;21.00;22.80;;;;;;2243789;61;20366;-62
2021/03/19 02:31:14;0.00;0.00;0.62;0.00;0.00;0.62;3.37;3.07;;;21.00;22.80;;;;;;2238747;61;20588;-63
2021/03/19 02:34:01;0.00;0.00;0.62;0.00;0.00;0.62;3.97;3.10;;;20.90;22.80;;;;;;2242502;61;20848;-61
2021/03/19 02:36:46;0.00;0.00;0.62;0.00;0.00;0.62;4.30;3.70;;;20.90;22.80;;;;;;2242019;62;20389;-61
2021/03/19 02:39:30;0.00;0.00;0.62;0.00;0.00;0.62;4.20;3.80;;;20.90;22.80;;;;;;2242271;62;20372;-61
2021/03/19 02:42:21;0.00;0.00;0.62;0.00;0.00;0.62;3.83;3.00;;;20.90;22.80;;;;;;2241462;61;20480;-61
2021/03/19 02:45:11;0.00;0.00;0.62;0.00;0.00;0.62;3.77;3.37;;;20.90;22.70;;;;;;2241637;62;20384;-60
2021/03/19 02:47:55;0.00;0.00;0.62;0.00;0.00;0.62;4.90;3.23;;;20.80;22.60;;;;;;2241832;62;20488;-61
2021/03/19 02:50:43;0.00;0.00;0.62;0.00;0.00;0.62;5.13;3.50;;;20.90;22.70;;;;;;2241756;62;20445;-61
2021/03/19 02:53:31;0.00;0.00;0.62;0.00;0.00;0.62;3.57;2.93;;;20.80;22.60;;;;;;2241510;62;20461;-61
2021/03/19 02:56:15;0.00;0.00;0.62;0.00;0.00;0.62;3.33;3.00;;;20.80;22.60;;;;;;2241876;62;20447;-61
2021/03/19 02:59:00;0.00;0.00;0.62;0.00;0.00;0.62;3.90;3.50;;;20.80;22.60;;;;;;2241960;62;20406;-61
2021/03/19 03:01:45;0.00;0.00;0.62;0.00;0.00;0.62;4.10;3.23;;;20.80;22.50;;;;;;2242020;61;20441;-61
2021/03/19 03:04:30;0.00;0.00;0.62;0.00;0.00;0.62;3.83;3.10;;;20.70;22.50;;;;;;2241088;62;20476;-62
2021/03/19 03:07:23;0.00;0.00;0.62;0.00;0.00;0.62;3.73;3.33;;;20.70;22.50;;;;;;2241504;62;20377;-60
2021/03/19 03:10:11;0.00;0.00;0.62;0.00;0.00;0.62;3.73;2.97;;;20.70;22.50;;;;;;2241775;62;20374;-62
2021/03/19 03:12:56;0.00;0.00;0.62;0.00;0.00;0.62;2.70;2.43;;;20.70;22.50;;;;;;2241714;61;20616;-62
2021/03/19 03:15:42;0.00;0.00;0.62;0.00;0.00;0.62;3.43;2.67;;;20.70;22.50;;;;;;2241665;61;20395;-62
2021/03/19 03:18:27;0.00;0.00;0.62;0.00;0.00;0.62;3.83;2.87;;;20.70;22.40;;;;;;2241732;62;20594;-62
2021/03/19 03:21:11;0.00;0.00;0.62;0.00;0.00;0.62;3.50;2.60;;;20.60;22.40;;;;;;2241793;62;20646;-61
2021/03/19 03:23:57;0.00;0.00;0.62;0.00;0.00;0.62;3.53;2.80;;;20.60;22.30;;;;;;2242118;62;20593;-59
2021/03/19 03:26:43;0.00;0.00;0.62;0.00;0.00;0.62;3.60;3.07;;;20.60;22.40;;;;;;2241526;62;20365;-62
2021/03/19 03:29:27;0.00;0.00;0.62;0.00;0.00;0.62;6.03;3.50;;;20.60;22.40;;;;;;2241549;62;20409;-62
2021/03/19 03:32:12;0.00;0.00;0.62;0.00;0.00;0.62;3.17;2.30;;;20.60;22.30;;;;;;2241576;61;20423;-63
2021/03/19 03:34:57;0.00;0.00;0.62;0.00;0.00;0.62;3.40;3.03;;;20.60;22.40;;;;;;2243907;61;20379;-62
2021/03/19 03:37:41;0.00;0.00;0.62;0.00;0.00;0.62;3.53;2.57;;;20.50;22.30;;;;;;2241597;62;20770;-62
2021/03/19 03:40:33;0.00;0.00;0.62;0.00;0.00;0.62;3.50;2.67;;;20.50;22.30;;;;;;2241557;62;20681;-62
2021/03/19 03:43:20;0.00;0.00;0.62;0.00;0.00;0.62;4.23;2.80;;;20.50;22.30;;;;;;2241676;62;20511;-61
2021/03/19 03:46:08;0.00;0.00;0.62;0.00;0.00;0.62;3.20;2.73;;;20.50;22.30;;;;;;2242019;62;20490;-63
2021/03/19 03:48:55;0.00;0.00;0.62;0.00;0.00;0.62;3.53;2.70;;;20.50;22.30;;;;;;2241325;62;20412;-63
2021/03/19 03:51:40;0.00;0.00;0.62;0.00;0.00;0.62;3.90;3.40;;;20.40;22.20;;;;;;2241309;61;20408;-62
2021/03/19 03:54:25;0.00;0.00;0.62;0.00;0.00;0.62;3.30;2.73;;;20.40;22.20;;;;;;2241608;62;20414;-62
2021/03/19 03:57:10;0.00;0.00;0.62;0.00;0.00;0.62;3.63;3.10;;;20.40;22.20;;;;;;2241674;62;20373;-63
2021/03/19 03:59:55;0.00;0.00;0.62;0.00;0.00;0.62;3.03;2.50;;;20.40;22.20;;;;;;2241445;62;20489;-61
2021/03/19 04:02:40;0.00;0.00;0.62;0.00;0.00;0.62;4.20;2.60;;;20.30;22.20;;;;;;2241441;62;20429;-62
2021/03/19 04:05:32;0.00;0.00;0.62;0.00;0.00;0.62;4.27;3.00;;;20.30;22.20;;;;;;2241742;62;20780;-63
2021/03/19 04:08:20;0.00;0.00;0.62;0.00;0.00;0.62;2.77;2.47;;;20.30;22.20;;;;;;2241967;62;20408;-62
2021/03/19 04:11:10;0.00;0.00;0.62;0.00;0.00;0.62;2.70;2.27;;;20.30;22.20;;;;;;2241214;62;20369;-62
2021/03/19 04:13:56;0.00;0.00;0.62;0.00;0.00;0.62;2.40;2.00;;;20.30;22.20;;;;;;2241362;62;20378;-62
2021/03/19 04:16:40;0.00;0.00;0.62;0.00;0.00;0.62;4.33;3.03;;;20.30;22.20;;;;;;2241540;62;20369;-62
2021/03/19 04:19:25;0.00;0.00;0.62;0.00;0.00;0.62;2.33;2.10;;;20.30;22.20;;;;;;2241643;62;20377;-62
2021/03/19 04:22:10;0.00;0.00;0.62;0.00;0.00;0.62;3.03;2.30;;;20.30;22.20;;;;;;2241230;61;20425;-62
2021/03/19 04:24:55;0.00;0.00;0.62;0.00;0.00;0.62;2.70;1.90;;;20.20;22.10;;;;;;2241541;62;20423;-62
2021/03/19 04:27:46;0.00;0.00;0.62;0.00;0.00;0.62;3.00;2.60;;;20.20;22.10;;;;;;2241435;62;20633;-62
2021/03/19 04:30:38;0.00;0.00;0.62;0.00;0.00;0.62;2.60;1.97;;;20.20;22.10;;;;;;2241840;62;20368;-62
2021/03/19 04:33:26;0.00;0.00;0.62;0.00;0.00;0.62;3.73;2.30;;;20.20;22.10;;;;;;2243516;61;20381;-62
2021/03/19 04:36:25;0.00;0.00;0.62;0.00;0.00;0.62;2.90;2.27;;;20.20;22.10;;;;;;2241429;62;20721;-62
2021/03/19 04:39:15;0.00;0.00;0.62;0.00;0.00;0.62;2.67;1.70;;;20.10;22.00;;;;;;2241572;62;20413;-60
2021/03/19 04:42:02;0.00;0.00;0.62;0.00;0.00;0.62;3.63;2.13;;;20.10;22.00;;;;;;2241287;61;20416;-59
2021/03/19 04:44:48;0.00;0.00;0.62;0.00;0.00;0.62;3.03;2.10;;;20.10;22.00;;;;;;2243793;61;20370;-62
2021/03/19 04:47:34;0.00;0.00;0.62;0.00;0.00;0.62;1.97;1.77;;;20.10;22.00;;;;;;2241336;62;20446;-60
2021/03/19 04:50:20;0.00;0.00;0.62;0.00;0.00;0.62;2.63;1.87;;;20.00;21.90;;;;;;2241255;62;20423;-62
2021/03/19 04:53:05;0.00;0.00;0.62;0.00;0.00;0.62;2.90;2.23;;;20.10;22.00;;;;;;2241788;61;20438;-63
2021/03/19 04:55:49;0.00;0.00;0.62;0.00;0.00;0.62;1.97;1.77;;;20.00;21.90;;;;;;2241283;62;20366;-59
2021/03/19 04:58:34;0.00;0.00;0.62;0.00;0.00;0.62;2.40;1.90;;;20.00;22.20;;;;;;2241336;62;20446;-62
2021/03/19 05:01:19;0.00;0.00;0.62;0.00;0.00;0.62;2.90;1.80;;;20.00;22.00;;;;;;2241415;62;20609;-62
2021/03/19 05:04:05;0.00;0.00;0.62;0.00;0.00;0.62;2.73;2.00;;;20.00;21.90;;;;;;2241437;62;20372;-62
2021/03/19 05:06:52;0.00;0.00;0.62;0.00;0.00;0.62;2.30;1.83;;;20.00;21.90;;;;;;2241309;62;20369;-62
2021/03/19 05:09:37;0.00;0.00;0.62;0.00;0.00;0.62;2.73;2.37;;;20.00;21.90;;;;;;2241501;62;20359;-62
2021/03/19 05:12:22;0.00;0.00;0.62;0.00;0.00;0.62;2.47;1.90;;;19.90;21.90;;;;;;2241353;61;20459;-61
2021/03/19 05:15:09;0.00;0.00;0.62;0.00;0.00;0.62;3.93;2.20;;;19.90;21.90;;;;;;2241753;62;20371;-62
2021/03/19 05:17:54;0.00;0.00;0.62;0.00;0.00;0.62;3.23;1.90;;;19.90;21.90;;;;;;2240983;62;20434;-63
2021/03/19 05:20:40;0.00;0.00;0.62;0.00;0.00;0.62;2.30;1.83;;;19.90;21.90;;;;;;2241201;62;20368;-63
2021/03/19 05:23:28;0.00;0.00;0.62;0.00;0.00;0.62;2.23;1.73;;;19.90;21.90;;;;;;2241175;62;20494;-63
2021/03/19 05:26:12;0.00;0.00;0.62;0.00;0.00;0.62;3.07;1.83;;;19.90;21.90;;;;;;2241380;62;20371;-64
2021/03/19 05:28:57;0.00;0.00;0.62;0.00;0.00;0.62;2.80;1.70;;;19.80;21.80;;;;;;2241289;62;20401;-61
2021/03/19 05:31:42;0.00;0.00;0.62;0.00;0.00;0.62;2.20;2.00;;;19.80;21.80;;;;;;2243540;61;20405;-64
2021/03/19 05:34:26;0.00;0.00;0.62;0.00;0.00;0.62;4.40;2.30;;;19.80;21.80;;;;;;2241643;62;20402;-63
2021/03/19 05:37:12;0.00;0.00;0.62;0.00;0.00;0.62;3.07;2.07;;;19.80;21.80;;;;;;2241694;62;20766;-63
2021/03/19 05:39:57;0.00;0.00;0.62;0.00;0.00;0.62;2.60;2.13;;;19.80;21.80;;;;;;2241384;62;20371;-63
2021/03/19 05:42:41;0.00;0.00;0.62;0.00;0.00;0.62;2.63;1.90;;;19.80;21.80;;;;;;2241441;61;20400;-61
2021/03/19 05:45:29;0.00;0.00;0.62;0.00;0.00;0.62;5.63;2.33;;;19.80;21.80;;;;;;2242004;62;20369;-60
2021/03/19 05:48:14;0.00;0.00;0.62;0.00;0.00;0.62;2.10;1.50;;;19.70;21.70;;;;;;2241884;62;20374;-61
2021/03/19 05:50:59;0.00;0.00;0.62;0.00;0.00;0.62;2.17;1.40;;;19.70;21.70;;;;;;2241503;62;20743;-61
2021/03/19 05:53:53;0.00;0.00;0.62;0.00;0.00;0.62;4.33;1.87;;;19.70;21.70;;;;;;2241943;62;20392;-61
2021/03/19 05:56:39;0.00;0.00;0.62;0.00;0.00;0.62;2.13;1.37;;;19.70;21.80;;;;;;2242257;62;20732;-60
2021/03/19 05:59:23;0.00;0.00;0.62;0.00;0.00;0.62;2.23;1.33;;;19.70;21.90;;;;;;2242337;62;20402;-63
2021/03/19 06:02:19;0.00;0.00;0.62;0.00;0.00;0.62;2.10;1.50;;;19.70;21.90;;;;;;2241560;61;20441;-64
2021/03/19 06:05:13;0.00;0.00;0.62;0.00;0.00;0.62;2.20;1.70;;;19.70;21.90;;;;;;2241748;62;20413;-64
2021/03/19 06:08:05;0.00;0.00;0.62;0.00;0.00;0.62;1.97;1.40;;;19.70;22.00;;;;;;2241877;62;20490;-64
2021/03/19 06:11:04;0.00;0.00;0.62;0.00;0.00;0.62;1.80;1.23;;;19.70;22.00;;;;;;2241950;62;20374;-64
2021/03/19 06:14:03;0.00;0.00;0.62;0.00;0.00;0.62;2.40;1.50;;;19.70;22.60;;;;;;2241874;62;20372;-65
2021/03/19 06:16:50;0.00;0.00;0.62;0.00;0.00;0.62;2.30;1.53;;;19.80;22.10;;;;;;2241743;62;20438;-61
2021/03/19 06:19:38;0.00;0.00;0.62;0.00;0.00;0.62;1.50;1.10;;;19.80;22.20;;;;;;2238685;62;20398;-66
2021/03/19 06:22:32;0.00;0.00;0.62;0.00;0.00;0.62;1.60;1.20;;;19.80;22.20;;;;;;2241727;61;20406;-61
2021/03/19 06:25:22;0.00;0.00;0.62;0.00;0.00;0.62;2.47;1.33;;;19.80;22.20;;;;;;2242035;62;20379;-63
2021/03/19 06:28:26;0.00;0.00;0.62;0.00;0.00;0.62;1.60;1.17;;;19.80;22.20;;;;;;2241787;62;20400;-61
2021/03/19 06:31:20;0.00;0.00;0.62;0.00;0.00;0.62;1.60;1.10;;;19.80;22.20;;;;;;2241704;62;20595;-62
2021/03/19 06:34:11;0.00;0.00;0.62;0.00;0.00;0.62;1.30;0.90;;;19.80;22.20;;;;;;2241685;62;20672;-60
2021/03/19 06:36:59;0.00;0.00;0.62;0.00;0.00;0.62;1.50;1.17;;;19.80;22.20;;;;;;2244554;61;20368;-61
2021/03/19 06:39:51;0.00;0.00;0.62;0.00;0.00;0.62;2.10;1.20;;;19.80;22.20;;;;;;2244252;61;20377;-60
2021/03/19 06:42:41;0.00;0.00;0.62;0.00;0.00;0.62;1.60;1.03;;;19.80;22.20;;;;;;2241521;61;20418;-61
2021/03/19 06:45:26;0.00;0.00;0.62;0.00;0.00;0.62;1.70;1.00;;;19.80;22.20;;;;;;2241978;62;20478;-61
2021/03/19 06:48:31;0.00;0.00;0.62;0.00;0.00;0.62;2.00;1.00;;;19.80;22.70;;;;;;2241829;62;20479;-64
2021/03/19 06:51:26;0.00;0.00;0.62;0.00;0.00;0.62;1.53;1.10;;;19.80;22.20;;;;;;2242208;62;20414;-63
2021/03/19 06:54:14;0.00;0.00;0.62;0.00;0.00;0.62;1.40;0.90;;;19.80;22.30;;;;;;2241554;62;20368;-63
2021/03/19 06:57:08;0.00;0.00;0.62;0.00;0.00;0.62;1.70;1.07;;;19.90;22.40;;;;;;2241672;62;20373;-62
2021/03/19 06:59:55;0.00;0.00;0.62;0.00;0.00;0.62;4.50;0.97;;;19.90;22.40;;;;;;2241939;62;20367;-63
2021/03/19 07:02:58;0.00;0.00;0.62;0.00;0.00;0.62;1.70;1.00;;;19.90;22.40;;;;;;2241632;61;20410;-61
2021/03/19 07:06:04;0.00;0.00;0.62;0.00;0.00;0.62;2.03;0.90;;;19.90;22.40;;;;;;2241915;62;20370;-61
2021/03/19 07:08:58;0.00;0.00;0.62;0.00;0.00;0.62;2.07;0.90;;;19.90;22.40;;;;;;2241369;62;20379;-61
2021/03/19 07:12:04;0.00;0.00;0.62;0.00;0.00;0.62;1.30;0.90;;;19.90;22.40;;;;;;2241586;61;20426;-63
2021/03/19 07:15:17;0.00;0.00;0.62;0.00;0.00;0.62;1.50;0.97;;;19.90;22.40;;;;;;2244076;61;20452;-61
2021/03/19 07:18:12;0.00;0.00;0.62;0.00;0.00;0.62;1.43;1.10;;;19.90;22.40;;;;;;2242036;62;20407;-60
2021/03/19 07:21:32;0.00;0.00;0.62;0.00;0.00;0.62;2.90;1.07;;;19.90;22.40;;;;;;2242233;62;20729;-64
2021/03/19 07:24:34;0.00;0.00;0.62;0.00;0.00;0.62;1.53;1.10;;;19.90;22.40;;;;;;2241282;62;20397;-60
2021/03/19 07:27:47;0.00;0.00;0.62;0.00;0.00;0.62;1.40;1.03;;;19.90;22.40;;;;;;2241692;62;20373;-63
2021/03/19 07:30:37;0.00;0.00;0.62;0.00;0.00;0.62;1.70;1.00;;;19.90;22.40;;;;;;2241263;62;20365;-63
2021/03/19 07:33:45;0.00;0.00;0.62;0.00;0.00;0.62;1.40;1.00;;;19.90;22.40;;;;;;2243863;61;20393;-63
2021/03/19 07:36:45;0.00;0.00;0.62;0.00;0.00;0.62;1.80;1.20;;;19.90;22.40;;;;;;2243986;61;20892;-62
2021/03/19 07:39:57;0.00;0.00;0.62;0.00;0.00;0.62;1.43;0.97;;;20.00;22.40;;;;;;2241722;62;20365;-60
2021/03/19 07:43:19;0.00;0.00;0.62;0.00;0.00;0.62;1.30;1.00;;;19.90;22.40;;;;;;2241656;61;20790;-60
2021/03/19 07:46:24;0.00;0.00;0.62;0.00;0.00;0.62;2.10;1.30;;;20.00;22.40;;;;;;2241599;62;20360;-61
2021/03/19 07:49:56;0.00;0.00;0.62;0.00;0.00;0.62;1.50;0.90;;;20.00;22.40;;;;;;2243999;61;20405;-64
2021/03/19 07:53:22;0.00;0.00;0.62;0.00;0.00;0.62;1.50;0.93;;;20.00;22.50;;;;;;2241105;62;20495;-61
2021/03/19 07:56:20;0.00;0.00;0.62;0.00;0.00;0.62;2.13;1.33;;;20.00;22.40;;;;;;2241698;62;20592;-61
2021/03/19 07:59:19;0.00;0.00;0.62;0.00;0.00;0.62;1.57;1.10;;;20.00;22.50;;;;;;2241624;62;20369;-61
2021/03/19 08:03:05;0.00;0.00;0.62;0.00;0.00;0.62;1.90;1.30;;;20.00;23.00;;;;;;2241422;61;20402;-61
2021/03/19 08:05:53;0.00;0.00;0.62;0.00;0.00;0.62;1.70;1.30;;;20.00;22.50;;;;;;2241760;62;20409;-62
2021/03/19 08:08:44;0.00;0.00;0.62;0.00;0.00;0.62;1.77;1.33;;;20.00;22.50;;;;;;2241586;62;20369;-62
2021/03/19 08:11:39;0.00;0.00;0.62;0.00;0.00;0.62;1.87;1.03;;;20.00;22.50;;;;;;2241417;61;20597;-60
2021/03/19 08:14:42;0.00;0.00;0.62;0.00;0.00;0.62;1.50;1.20;;;20.00;22.50;;;;;;2241528;62;20446;-63
2021/03/19 08:17:41;0.00;0.00;0.62;0.00;0.00;0.62;1.60;1.13;;;20.10;22.60;;;;;;2241660;62;20368;-62
2021/03/19 08:20:59;0.00;0.00;0.62;0.00;0.00;0.62;1.60;1.10;;;20.10;22.50;;;;;;2241805;62;20435;-62
2021/03/19 08:24:00;0.00;0.00;0.62;0.00;0.00;0.62;2.27;1.13;;;20.10;22.50;;;;;;2241192;62;20745;-63
2021/03/19 08:27:03;0.00;0.00;0.62;0.00;0.00;0.62;2.17;1.40;;;20.10;22.50;;;;;;2241010;62;20660;-63
2021/03/19 08:30:01;0.00;0.00;0.62;0.00;0.00;0.62;1.70;1.20;;;20.10;22.50;;;;;;2241259;62;20617;-63
2021/03/19 08:33:05;0.00;0.00;0.62;0.00;0.00;0.62;2.03;1.57;;;20.10;22.50;;;;;;2241522;61;20432;-63
2021/03/19 08:36:00;0.00;0.00;0.62;0.00;0.00;0.62;1.60;1.10;;;20.10;22.50;;;;;;2241536;62;20391;-63
2021/03/19 08:38:49;0.00;0.00;0.62;0.00;0.00;0.62;1.80;1.10;;;20.10;22.50;;;;;;2241706;62;20369;-62
2021/03/19 08:41:39;0.00;0.00;0.62;0.00;0.00;0.62;2.20;1.50;;;20.10;22.50;;;;;;2241354;61;20461;-64
2021/03/19 08:44:29;0.00;0.00;0.62;0.00;0.00;0.62;1.80;1.20;;;20.10;22.50;;;;;;2241404;62;20374;-63
2021/03/19 08:47:25;0.00;0.00;0.62;0.00;0.00;0.62;1.80;1.40;;;20.20;22.60;;;;;;2241355;62;20376;-63
2021/03/19 08:50:25;0.00;0.00;0.62;0.00;0.00;0.62;1.70;1.00;;;20.20;22.50;;;;;;2241371;62;20580;-64
2021/03/19 08:53:18;0.00;0.00;0.62;0.00;0.00;0.62;2.60;1.47;;;20.20;22.50;;;;;;2241587;61;20413;-63
2021/03/19 08:56:29;0.00;0.00;0.62;0.00;0.00;0.62;2.57;1.30;;;20.20;22.50;;;;;;2241378;62;20491;-64
2021/03/19 08:59:49;0.00;0.00;0.62;0.00;0.00;0.62;1.90;1.33;;;20.20;22.50;;;;;;2241364;62;20449;-61
2021/03/19 09:02:51;0.00;0.00;0.62;0.00;0.00;0.62;1.43;1.10;;;20.20;22.50;;;;;;2241201;61;20403;-62
2021/03/19 09:05:58;0.00;0.00;0.62;0.00;0.00;0.62;1.70;1.13;;;20.30;22.60;;;;;;2241538;62;20376;-63
2021/03/19 09:09:35;0.00;0.00;0.62;0.00;0.00;0.62;1.67;1.03;;;20.30;22.50;;;;;;2241457;62;20368;-63
2021/03/19 09:12:26;0.00;0.00;0.62;0.00;0.00;0.62;1.70;1.20;;;20.30;22.60;;;;;;2241830;61;20420;-62
2021/03/19 09:15:29;0.00;0.00;0.62;0.00;0.00;0.62;2.07;1.20;;;20.30;22.50;;;;;;2242180;62;20632;-62
2021/03/19 09:18:42;0.00;0.00;0.62;0.00;0.00;0.62;1.77;1.13;;;20.30;22.50;;;;;;2244429;61;20373;-62
2021/03/19 09:21:31;0.00;0.00;0.62;0.00;0.00;0.62;1.40;0.90;;;20.30;22.50;;;;;;2241778;61;20441;-62
2021/03/19 09:24:19;0.00;0.00;0.62;0.00;0.00;0.62;2.90;1.33;;;20.30;22.50;;;;;;2241941;62;20668;-63
2021/03/19 09:27:25;0.00;0.00;0.62;0.00;0.00;0.62;1.43;0.93;;;20.30;22.50;;;;;;2242462;62;20382;-62
2021/03/19 09:30:27;0.00;0.00;0.62;0.00;0.00;0.62;1.97;1.37;;;20.40;22.60;;;;;;2242116;62;20372;-63
2021/03/19 09:33:51;0.00;0.00;0.62;0.00;0.00;0.62;1.33;0.93;;;20.40;22.50;;;;;;2241976;61;20457;-63
2021/03/19 09:37:31;0.00;0.00;0.62;0.00;0.00;0.62;1.50;1.00;;;20.40;22.50;;;;;;2244168;61;20376;-61
2021/03/19 09:40:48;0.00;0.00;0.62;0.00;0.00;0.62;1.93;1.20;;;20.40;22.50;;;;;;2242023;62;20365;-62
2021/03/19 09:43:46;0.00;0.00;0.62;0.00;0.00;0.62;1.40;0.90;;;20.40;22.50;;;;;;2241526;62;20467;-63
2021/03/19 09:46:32;0.00;0.00;0.62;0.00;0.00;0.62;1.50;0.93;;;20.50;22.60;;;;;;2241907;62;20369;-61
2021/03/19 09:49:26;0.00;0.00;0.62;0.00;0.00;0.62;2.10;1.10;;;20.50;22.60;;;;;;2242502;62;20412;-61
2021/03/19 09:52:12;0.00;0.00;0.62;0.00;0.00;0.62;1.60;1.00;;;20.50;22.60;;;;;;2241757;61;20401;-62
2021/03/19 09:54:57;0.00;0.00;0.62;0.00;0.00;0.62;1.37;0.83;;;20.50;22.60;;;;;;2242040;62;20729;-64
2021/03/19 09:57:42;0.00;0.00;0.62;0.00;0.00;0.62;1.40;0.90;;;20.50;22.60;;;;;;2242027;62;20374;-63
2021/03/19 10:00:28;0.00;0.00;0.62;0.00;0.00;0.62;1.40;1.00;;;20.60;22.60;;;;;;2241976;62;20397;-60
2021/03/19 10:03:13;0.00;0.00;0.62;0.00;0.00;0.62;1.50;1.13;;;20.60;22.60;;;;;;2242056;61;20792;-63
2021/03/19 10:05:58;0.00;0.00;0.62;0.00;0.00;0.62;1.43;0.87;;;20.60;22.60;;;;;;2241710;62;20365;-61
2021/03/19 10:08:43;0.00;0.00;0.62;0.00;0.00;0.62;1.50;0.97;;;20.60;22.60;;;;;;2241845;62;20370;-63
2021/03/19 10:11:28;0.00;0.00;0.62;0.00;0.00;0.62;1.20;0.90;;;20.60;22.50;;;;;;2242221;61;20381;-62
2021/03/19 10:14:21;0.00;0.00;0.62;0.00;0.00;0.62;2.17;1.00;;;20.70;22.60;;;;;;2241916;62;20368;-63
2021/03/19 10:17:26;0.00;0.00;0.62;0.00;0.00;0.62;1.40;0.90;;;20.70;22.60;;;;;;2241892;62;20373;-62
2021/03/19 10:20:18;0.00;0.00;0.62;0.00;0.00;0.62;1.40;0.87;;;20.70;22.50;;;;;;2241600;62;20369;-62
2021/03/19 10:23:13;0.00;0.00;0.62;0.00;0.00;0.62;1.47;1.10;;;20.70;22.50;;;;;;2242258;61;20449;-63
2021/03/19 10:26:19;0.00;0.00;0.62;0.00;0.00;0.62;3.00;1.00;;;20.70;22.50;;;;;;2242213;62;20434;-64
2021/03/19 10:29:11;0.00;0.00;0.62;0.00;0.00;0.62;1.27;0.80;;;20.80;22.60;;;;;;2241843;62;20391;-60
2021/03/19 10:31:59;0.00;0.00;0.62;0.00;0.00;0.62;1.60;1.00;;;20.80;22.60;;;;;;2241846;61;20605;-61
2021/03/19 10:34:51;0.00;0.00;0.62;0.00;0.00;0.62;1.20;0.70;;;20.80;22.60;;;;;;2241850;62;20642;-62
2021/03/19 10:37:40;0.00;0.00;0.62;0.00;0.00;0.62;1.30;0.83;;;20.80;22.70;;;;;;2242045;62;20597;-62
2021/03/19 10:40:37;0.00;0.00;0.62;0.00;0.00;0.62;1.53;1.00;;;20.80;22.70;;;;;;2242160;62;20377;-62
2021/03/19 10:43:27;0.00;0.00;0.62;0.00;0.00;0.62;1.40;0.90;;;20.80;22.60;;;;;;2243816;61;20408;-62
2021/03/19 10:46:20;0.00;0.00;0.62;0.00;0.00;0.62;1.57;0.90;;;20.90;22.70;;;;;;2241857;62;20378;-62
2021/03/19 10:49:14;0.00;0.00;0.62;0.00;0.00;0.62;2.13;0.83;;;20.90;22.70;;;;;;2241816;62;20373;-61
2021/03/19 10:52:07;0.00;0.00;0.62;0.00;0.00;0.62;1.40;0.80;;;20.90;22.60;;;;;;2241840;61;20387;-62
2021/03/19 10:54:54;0.00;0.00;0.62;0.00;0.00;0.62;1.50;0.90;;;20.90;22.70;;;;;;2241902;62;20369;-61
2021/03/19 10:57:40;0.00;0.00;0.62;0.00;0.00;0.62;1.97;0.97;;;21.00;22.70;;;;;;2241637;62;20385;-62
2021/03/19 11:00:35;0.00;0.00;0.62;0.00;0.00;0.62;1.30;0.90;;;21.00;22.70;;;;;;2241827;62;20373;-62
2021/03/19 11:03:38;0.00;0.00;0.62;0.00;0.00;0.62;1.40;0.83;;;21.00;22.70;;;;;;2242148;61;20404;-61
2021/03/19 11:06:41;0.00;0.00;0.62;0.00;0.00;0.62;1.60;1.10;;;21.00;22.70;;;;;;2241900;62;20448;-62
2021/03/19 11:09:28;0.00;0.00;0.62;0.00;0.00;0.62;1.30;0.80;;;21.00;22.70;;;;;;2241854;62;20374;-64
2021/03/19 11:12:22;0.00;0.00;0.62;0.00;0.00;0.62;1.43;0.90;;;21.10;22.70;;;;;;2241630;61;20825;-61
2021/03/19 11:15:10;0.00;0.00;0.62;0.00;0.00;0.62;1.50;0.90;;;21.10;22.60;;;;;;2244088;61;20426;-61
2021/03/19 11:18:19;0.00;0.00;0.62;0.00;0.00;0.62;1.33;0.80;;;21.10;22.60;;;;;;2241992;62;20422;-62
2021/03/19 11:21:29;0.00;0.00;0.62;0.00;0.00;0.62;1.90;0.90;;;21.20;22.70;;;;;;2241820;62;20386;-64
2021/03/19 11:24:26;0.00;0.00;0.62;0.00;0.00;0.62;1.50;0.83;;;21.20;22.70;;;;;;2241673;62;20593;-63
2021/03/19 11:27:21;0.00;0.00;0.62;0.00;0.00;0.62;1.40;0.80;;;21.20;22.60;;;;;;2241152;62;20397;-64
2021/03/19 11:30:26;0.00;0.00;0.62;0.00;0.00;0.62;1.20;0.70;;;21.20;22.60;;;;;;2241746;62;20370;-61